sensor_id;sensor_type;location;lat;lon;timestamp;temperature;humidity
25532;DHT22;13429;48.816;9.118;2023-11-21T00:00:49;7.30;91.70
25532;DHT22;13429;48.816;9.118;2023-11-21T00:03:14;7.30;91.90
25532;DHT22;13429;48.816;9.118;2023-11-21T00:05:41;7.30;91.80
25532;DHT22;13429;48.816;9.118;2023-11-21T00:08:07;7.30;91.90
25532;DHT22;13429;48.816;9.118;2023-11-21T00:10:33;7.30;91.80
25532;DHT22;13429;48.816;9.118;2023-11-21T00:12:59;7.30;92.00
25532;DHT22;13429;48.816;9.118;2023-11-21T00:15:24;7.30;92.00
25532;DHT22;13429;48.816;9.118;2023-11-21T00:17:50;7.30;92.00
25532;DHT22;13429;48.816;9.118;2023-11-21T00:20:16;7.30;92.10
25532;DHT22;13429;48.816;9.118;2023-11-21T00:22:41;7.40;92.10
25532;DHT22;13429;48.816;9.118;2023-11-21T00:25:07;7.50;92.00
25532;DHT22;13429;48.816;9.118;2023-11-21T00:27:35;7.50;91.90
25532;DHT22;13429;48.816;9.118;2023-11-21T00:30:01;7.50;92.00
25532;DHT22;13429;48.816;9.118;2023-11-21T00:32:26;7.50;91.80
25532;DHT22;13429;48.816;9.118;2023-11-21T00:34:52;7.50;91.80
25532;DHT22;13429;48.816;9.118;2023-11-21T00:37:17;7.50;91.90
25532;DHT22;13429;48.816;9.118;2023-11-21T00:39:43;7.50;92.10
25532;DHT22;13429;48.816;9.118;2023-11-21T00:42:09;7.50;92.00
25532;DHT22;13429;48.816;9.118;2023-11-21T00:44:38;7.60;92.10
25532;DHT22;13429;48.816;9.118;2023-11-21T00:47:04;7.60;92.10
25532;DHT22;13429;48.816;9.118;2023-11-21T00:49:30;7.60;92.20
25532;DHT22;13429;48.816;9.118;2023-11-21T00:51:56;7.60;92.10
25532;DHT22;13429;48.816;9.118;2023-11-21T00:54:23;7.60;92.30
25532;DHT22;13429;48.816;9.118;2023-11-21T00:56:49;7.60;92.10
25532;DHT22;13429;48.816;9.118;2023-11-21T00:59:14;7.70;92.10
25532;DHT22;13429;48.816;9.118;2023-11-21T01:01:40;7.60;92.20
25532;DHT22;13429;48.816;9.118;2023-11-21T01:04:06;7.70;92.20
25532;DHT22;13429;48.816;9.118;2023-11-21T01:06:34;7.70;92.10
25532;DHT22;13429;48.816;9.118;2023-11-21T01:09:00;7.60;92.20
25532;DHT22;13429;48.816;9.118;2023-11-21T01:11:25;7.70;92.20
25532;DHT22;13429;48.816;9.118;2023-11-21T01:13:51;7.70;92.40
25532;DHT22;13429;48.816;9.118;2023-11-21T01:16:18;7.70;92.40
25532;DHT22;13429;48.816;9.118;2023-11-21T01:18:44;7.70;92.30
25532;DHT22;13429;48.816;9.118;2023-11-21T01:21:09;7.70;92.20
25532;DHT22;13429;48.816;9.118;2023-11-21T01:23:35;7.70;92.00
25532;DHT22;13429;48.816;9.118;2023-11-21T01:26:01;7.70;92.20
25532;DHT22;13429;48.816;9.118;2023-11-21T01:28:26;7.70;92.40
25532;DHT22;13429;48.816;9.118;2023-11-21T01:30:53;7.60;92.40
25532;DHT22;13429;48.816;9.118;2023-11-21T01:33:22;7.60;92.40
25532;DHT22;13429;48.816;9.118;2023-11-21T01:35:50;7.60;92.50
25532;DHT22;13429;48.816;9.118;2023-11-21T01:38:16;7.60;92.60
25532;DHT22;13429;48.816;9.118;2023-11-21T01:40:43;7.60;92.70
25532;DHT22;13429;48.816;9.118;2023-11-21T01:43:08;7.70;92.60
25532;DHT22;13429;48.816;9.118;2023-11-21T01:45:34;7.70;92.60
25532;DHT22;13429;48.816;9.118;2023-11-21T01:48:00;7.70;92.40
25532;DHT22;13429;48.816;9.118;2023-11-21T01:50:27;7.70;92.50
25532;DHT22;13429;48.816;9.118;2023-11-21T01:52:54;7.70;92.40
25532;DHT22;13429;48.816;9.118;2023-11-21T01:55:20;7.70;92.40
25532;DHT22;13429;48.816;9.118;2023-11-21T01:57:46;7.70;92.40
25532;DHT22;13429;48.816;9.118;2023-11-21T02:00:12;7.70;92.40
25532;DHT22;13429;48.816;9.118;2023-11-21T02:02:45;7.70;92.30
25532;DHT22;13429;48.816;9.118;2023-11-21T02:05:11;7.70;92.30
25532;DHT22;13429;48.816;9.118;2023-11-21T02:07:41;7.70;92.30
25532;DHT22;13429;48.816;9.118;2023-11-21T02:10:07;7.80;92.20
25532;DHT22;13429;48.816;9.118;2023-11-21T02:12:34;7.70;92.30
25532;DHT22;13429;48.816;9.118;2023-11-21T02:15:01;7.70;92.30
25532;DHT22;13429;48.816;9.118;2023-11-21T02:17:28;7.70;92.20
25532;DHT22;13429;48.816;9.118;2023-11-21T02:19:54;7.80;92.30
25532;DHT22;13429;48.816;9.118;2023-11-21T02:22:19;7.80;92.30
25532;DHT22;13429;48.816;9.118;2023-11-21T02:24:46;7.80;92.30
25532;DHT22;13429;48.816;9.118;2023-11-21T02:27:13;7.70;92.30
25532;DHT22;13429;48.816;9.118;2023-11-21T02:29:39;7.80;92.30
25532;DHT22;13429;48.816;9.118;2023-11-21T02:32:04;7.70;92.30
25532;DHT22;13429;48.816;9.118;2023-11-21T02:34:30;7.70;92.30
25532;DHT22;13429;48.816;9.118;2023-11-21T02:36:56;7.70;92.20
25532;DHT22;13429;48.816;9.118;2023-11-21T02:39:22;7.70;92.30
25532;DHT22;13429;48.816;9.118;2023-11-21T02:41:49;7.70;92.30
25532;DHT22;13429;48.816;9.118;2023-11-21T02:44:15;7.70;92.20
25532;DHT22;13429;48.816;9.118;2023-11-21T02:46:41;7.60;92.20
25532;DHT22;13429;48.816;9.118;2023-11-21T02:49:06;7.70;92.10
25532;DHT22;13429;48.816;9.118;2023-11-21T02:51:33;7.60;92.20
25532;DHT22;13429;48.816;9.118;2023-11-21T02:53:59;7.70;92.10
25532;DHT22;13429;48.816;9.118;2023-11-21T02:56:26;7.70;92.00
25532;DHT22;13429;48.816;9.118;2023-11-21T02:58:52;7.70;91.70
25532;DHT22;13429;48.816;9.118;2023-11-21T03:01:18;7.70;91.70
25532;DHT22;13429;48.816;9.118;2023-11-21T03:03:43;7.60;91.90
25532;DHT22;13429;48.816;9.118;2023-11-21T03:06:09;7.60;91.90
25532;DHT22;13429;48.816;9.118;2023-11-21T03:08:35;7.60;91.90
25532;DHT22;13429;48.816;9.118;2023-11-21T03:11:01;7.50;92.00
25532;DHT22;13429;48.816;9.118;2023-11-21T03:13:29;7.50;92.10
25532;DHT22;13429;48.816;9.118;2023-11-21T03:15:55;7.60;92.10
25532;DHT22;13429;48.816;9.118;2023-11-21T03:18:21;7.60;92.30
25532;DHT22;13429;48.816;9.118;2023-11-21T03:20:47;7.50;92.30
25532;DHT22;13429;48.816;9.118;2023-11-21T03:23:13;7.50;92.20
25532;DHT22;13429;48.816;9.118;2023-11-21T03:25:39;7.50;92.30
25532;DHT22;13429;48.816;9.118;2023-11-21T03:28:04;7.50;92.20
25532;DHT22;13429;48.816;9.118;2023-11-21T03:30:30;7.50;92.10
25532;DHT22;13429;48.816;9.118;2023-11-21T03:32:56;7.50;92.10
25532;DHT22;13429;48.816;9.118;2023-11-21T03:35:22;7.50;92.20
25532;DHT22;13429;48.816;9.118;2023-11-21T03:37:47;7.50;92.30
25532;DHT22;13429;48.816;9.118;2023-11-21T03:40:13;7.50;92.20
25532;DHT22;13429;48.816;9.118;2023-11-21T03:42:39;7.60;92.10
25532;DHT22;13429;48.816;9.118;2023-11-21T03:45:08;7.50;92.10
25532;DHT22;13429;48.816;9.118;2023-11-21T03:47:34;7.50;92.20
25532;DHT22;13429;48.816;9.118;2023-11-21T03:50:00;7.50;92.30
25532;DHT22;13429;48.816;9.118;2023-11-21T03:52:26;7.50;92.40
25532;DHT22;13429;48.816;9.118;2023-11-21T03:54:53;7.60;92.20
25532;DHT22;13429;48.816;9.118;2023-11-21T03:57:20;7.60;92.30
25532;DHT22;13429;48.816;9.118;2023-11-21T03:59:46;7.60;92.10
25532;DHT22;13429;48.816;9.118;2023-11-21T04:02:12;7.60;92.20
25532;DHT22;13429;48.816;9.118;2023-11-21T04:04:37;7.60;92.10
25532;DHT22;13429;48.816;9.118;2023-11-21T04:07:04;7.60;92.10
25532;DHT22;13429;48.816;9.118;2023-11-21T04:09:30;7.60;92.10
25532;DHT22;13429;48.816;9.118;2023-11-21T04:11:56;7.60;92.20
25532;DHT22;13429;48.816;9.118;2023-11-21T04:14:22;7.60;92.20
25532;DHT22;13429;48.816;9.118;2023-11-21T04:16:47;7.60;92.50
25532;DHT22;13429;48.816;9.118;2023-11-21T04:19:14;7.60;92.60
25532;DHT22;13429;48.816;9.118;2023-11-21T04:21:40;7.60;92.60
25532;DHT22;13429;48.816;9.118;2023-11-21T04:24:07;7.60;92.60
25532;DHT22;13429;48.816;9.118;2023-11-21T04:26:32;7.60;92.60
25532;DHT22;13429;48.816;9.118;2023-11-21T04:28:58;7.50;92.70
25532;DHT22;13429;48.816;9.118;2023-11-21T04:31:24;7.50;92.80
25532;DHT22;13429;48.816;9.118;2023-11-21T04:33:50;7.40;92.70
25532;DHT22;13429;48.816;9.118;2023-11-21T04:36:16;7.30;92.60
25532;DHT22;13429;48.816;9.118;2023-11-21T04:38:41;7.30;92.80
25532;DHT22;13429;48.816;9.118;2023-11-21T04:41:07;7.30;92.70
25532;DHT22;13429;48.816;9.118;2023-11-21T04:43:33;7.30;92.80
25532;DHT22;13429;48.816;9.118;2023-11-21T04:45:59;7.30;92.90
25532;DHT22;13429;48.816;9.118;2023-11-21T04:48:25;7.30;92.80
25532;DHT22;13429;48.816;9.118;2023-11-21T04:50:50;7.20;92.90
25532;DHT22;13429;48.816;9.118;2023-11-21T04:53:17;7.20;93.00
25532;DHT22;13429;48.816;9.118;2023-11-21T04:55:43;7.10;92.90
25532;DHT22;13429;48.816;9.118;2023-11-21T04:58:09;7.10;92.90
25532;DHT22;13429;48.816;9.118;2023-11-21T05:00:35;7.00;93.00
25532;DHT22;13429;48.816;9.118;2023-11-21T05:03:02;7.00;92.80
25532;DHT22;13429;48.816;9.118;2023-11-21T05:05:29;6.90;92.70
25532;DHT22;13429;48.816;9.118;2023-11-21T05:07:55;6.90;92.70
25532;DHT22;13429;48.816;9.118;2023-11-21T05:10:21;6.80;92.70
25532;DHT22;13429;48.816;9.118;2023-11-21T05:12:48;6.80;92.70
25532;DHT22;13429;48.816;9.118;2023-11-21T05:15:16;6.70;92.70
25532;DHT22;13429;48.816;9.118;2023-11-21T05:17:43;6.60;93.00
25532;DHT22;13429;48.816;9.118;2023-11-21T05:20:13;6.60;93.40
25532;DHT22;13429;48.816;9.118;2023-11-21T05:22:40;6.60;93.20
25532;DHT22;13429;48.816;9.118;2023-11-21T05:25:07;6.60;93.40
25532;DHT22;13429;48.816;9.118;2023-11-21T05:27:33;6.60;93.50
25532;DHT22;13429;48.816;9.118;2023-11-21T05:30:02;6.70;93.90
25532;DHT22;13429;48.816;9.118;2023-11-21T05:32:30;6.70;93.90
25532;DHT22;13429;48.816;9.118;2023-11-21T05:34:56;6.80;93.90
25532;DHT22;13429;48.816;9.118;2023-11-21T05:37:21;6.80;94.00
25532;DHT22;13429;48.816;9.118;2023-11-21T05:39:48;6.80;94.10
25532;DHT22;13429;48.816;9.118;2023-11-21T05:42:14;6.80;94.00
25532;DHT22;13429;48.816;9.118;2023-11-21T05:44:41;6.90;93.90
25532;DHT22;13429;48.816;9.118;2023-11-21T05:47:08;6.90;93.70
25532;DHT22;13429;48.816;9.118;2023-11-21T05:49:34;6.80;93.80
25532;DHT22;13429;48.816;9.118;2023-11-21T05:52:00;6.90;93.70
25532;DHT22;13429;48.816;9.118;2023-11-21T05:54:26;6.80;93.70
25532;DHT22;13429;48.816;9.118;2023-11-21T05:56:51;6.80;93.70
25532;DHT22;13429;48.816;9.118;2023-11-21T05:59:17;6.80;93.70
25532;DHT22;13429;48.816;9.118;2023-11-21T06:01:43;6.80;93.60
25532;DHT22;13429;48.816;9.118;2023-11-21T06:04:08;6.80;93.50
25532;DHT22;13429;48.816;9.118;2023-11-21T06:06:35;6.80;93.80
25532;DHT22;13429;48.816;9.118;2023-11-21T06:09:01;6.80;93.80
25532;DHT22;13429;48.816;9.118;2023-11-21T06:11:27;6.80;93.80
25532;DHT22;13429;48.816;9.118;2023-11-21T06:13:53;6.80;94.00
25532;DHT22;13429;48.816;9.118;2023-11-21T06:16:21;6.80;94.00
25532;DHT22;13429;48.816;9.118;2023-11-21T06:18:46;6.90;94.10
25532;DHT22;13429;48.816;9.118;2023-11-21T06:21:12;6.90;94.00
25532;DHT22;13429;48.816;9.118;2023-11-21T06:23:38;6.90;94.00
25532;DHT22;13429;48.816;9.118;2023-11-21T06:26:04;6.90;94.00
25532;DHT22;13429;48.816;9.118;2023-11-21T06:28:31;6.90;93.90
25532;DHT22;13429;48.816;9.118;2023-11-21T06:30:57;6.90;94.00
25532;DHT22;13429;48.816;9.118;2023-11-21T06:33:31;6.90;94.00
25532;DHT22;13429;48.816;9.118;2023-11-21T06:35:56;6.90;93.90
25532;DHT22;13429;48.816;9.118;2023-11-21T06:38:22;6.90;93.90
25532;DHT22;13429;48.816;9.118;2023-11-21T06:40:48;6.90;93.80
25532;DHT22;13429;48.816;9.118;2023-11-21T06:43:13;6.90;93.90
25532;DHT22;13429;48.816;9.118;2023-11-21T06:45:40;6.90;93.90
25532;DHT22;13429;48.816;9.118;2023-11-21T06:48:05;6.90;94.00
25532;DHT22;13429;48.816;9.118;2023-11-21T06:50:31;6.90;93.90
25532;DHT22;13429;48.816;9.118;2023-11-21T06:52:56;6.90;94.00
25532;DHT22;13429;48.816;9.118;2023-11-21T06:55:22;6.90;94.10
25532;DHT22;13429;48.816;9.118;2023-11-21T06:57:48;6.90;94.10
25532;DHT22;13429;48.816;9.118;2023-11-21T07:00:16;7.00;94.10
25532;DHT22;13429;48.816;9.118;2023-11-21T07:02:45;6.90;94.20
25532;DHT22;13429;48.816;9.118;2023-11-21T07:05:10;7.00;94.10
25532;DHT22;13429;48.816;9.118;2023-11-21T07:07:36;7.00;93.90
25532;DHT22;13429;48.816;9.118;2023-11-21T07:10:03;7.00;94.10
25532;DHT22;13429;48.816;9.118;2023-11-21T07:12:30;7.00;94.10
25532;DHT22;13429;48.816;9.118;2023-11-21T07:14:57;7.00;94.10
25532;DHT22;13429;48.816;9.118;2023-11-21T07:17:22;7.00;94.10
25532;DHT22;13429;48.816;9.118;2023-11-21T07:19:48;7.10;94.10
25532;DHT22;13429;48.816;9.118;2023-11-21T07:22:15;7.10;94.00
25532;DHT22;13429;48.816;9.118;2023-11-21T07:24:48;7.10;94.00
25532;DHT22;13429;48.816;9.118;2023-11-21T07:27:18;7.10;94.00
25532;DHT22;13429;48.816;9.118;2023-11-21T07:29:44;7.20;94.00
25532;DHT22;13429;48.816;9.118;2023-11-21T07:32:10;7.20;94.00
25532;DHT22;13429;48.816;9.118;2023-11-21T07:34:36;7.30;94.00
25532;DHT22;13429;48.816;9.118;2023-11-21T07:37:03;7.30;93.90
25532;DHT22;13429;48.816;9.118;2023-11-21T07:39:29;7.40;93.90
25532;DHT22;13429;48.816;9.118;2023-11-21T07:41:55;7.50;93.70
25532;DHT22;13429;48.816;9.118;2023-11-21T07:44:21;7.60;93.60
25532;DHT22;13429;48.816;9.118;2023-11-21T07:46:47;7.70;93.60
25532;DHT22;13429;48.816;9.118;2023-11-21T07:49:15;7.70;93.60
25532;DHT22;13429;48.816;9.118;2023-11-21T07:51:43;7.80;93.60
25532;DHT22;13429;48.816;9.118;2023-11-21T07:54:09;7.80;93.50
25532;DHT22;13429;48.816;9.118;2023-11-21T07:56:35;7.80;93.60
25532;DHT22;13429;48.816;9.118;2023-11-21T07:59:01;7.90;93.40
25532;DHT22;13429;48.816;9.118;2023-11-21T08:01:26;8.00;93.30
25532;DHT22;13429;48.816;9.118;2023-11-21T08:03:54;8.10;93.10
25532;DHT22;13429;48.816;9.118;2023-11-21T08:06:23;8.10;92.70
25532;DHT22;13429;48.816;9.118;2023-11-21T08:08:49;8.20;92.80
25532;DHT22;13429;48.816;9.118;2023-11-21T08:11:15;8.30;92.50
25532;DHT22;13429;48.816;9.118;2023-11-21T08:13:40;8.40;92.50
25532;DHT22;13429;48.816;9.118;2023-11-21T08:16:06;8.60;92.50
25532;DHT22;13429;48.816;9.118;2023-11-21T08:18:32;8.60;92.10
25532;DHT22;13429;48.816;9.118;2023-11-21T08:20:59;8.70;91.60
25532;DHT22;13429;48.816;9.118;2023-11-21T08:23:25;8.80;91.60
25532;DHT22;13429;48.816;9.118;2023-11-21T08:25:52;8.90;91.50
25532;DHT22;13429;48.816;9.118;2023-11-21T08:28:18;8.90;91.50
25532;DHT22;13429;48.816;9.118;2023-11-21T08:30:44;9.00;90.90
25532;DHT22;13429;48.816;9.118;2023-11-21T08:33:10;9.10;90.80
25532;DHT22;13429;48.816;9.118;2023-11-21T08:35:37;9.20;91.20
25532;DHT22;13429;48.816;9.118;2023-11-21T08:38:03;9.20;90.70
25532;DHT22;13429;48.816;9.118;2023-11-21T08:40:29;9.30;90.90
25532;DHT22;13429;48.816;9.118;2023-11-21T08:42:55;9.30;90.40
25532;DHT22;13429;48.816;9.118;2023-11-21T08:45:21;9.30;89.70
25532;DHT22;13429;48.816;9.118;2023-11-21T08:47:48;9.30;89.90
25532;DHT22;13429;48.816;9.118;2023-11-21T08:50:14;9.30;89.90
25532;DHT22;13429;48.816;9.118;2023-11-21T08:52:40;9.40;90.30
25532;DHT22;13429;48.816;9.118;2023-11-21T08:55:07;9.40;90.60
25532;DHT22;13429;48.816;9.118;2023-11-21T08:57:38;9.40;90.00
25532;DHT22;13429;48.816;9.118;2023-11-21T09:00:05;9.30;90.20
25532;DHT22;13429;48.816;9.118;2023-11-21T09:02:33;9.40;90.10
25532;DHT22;13429;48.816;9.118;2023-11-21T09:05:06;9.30;90.00
25532;DHT22;13429;48.816;9.118;2023-11-21T09:07:32;9.30;90.30
25532;DHT22;13429;48.816;9.118;2023-11-21T09:09:57;9.30;90.20
25532;DHT22;13429;48.816;9.118;2023-11-21T09:12:23;9.30;90.00
25532;DHT22;13429;48.816;9.118;2023-11-21T09:14:50;9.20;90.20
25532;DHT22;13429;48.816;9.118;2023-11-21T09:17:16;9.20;89.90
25532;DHT22;13429;48.816;9.118;2023-11-21T09:19:42;9.20;90.30
25532;DHT22;13429;48.816;9.118;2023-11-21T09:22:10;9.30;90.20
25532;DHT22;13429;48.816;9.118;2023-11-21T09:24:36;9.30;90.10
25532;DHT22;13429;48.816;9.118;2023-11-21T09:27:03;9.30;90.10
25532;DHT22;13429;48.816;9.118;2023-11-21T09:29:30;9.20;90.20
25532;DHT22;13429;48.816;9.118;2023-11-21T09:31:56;9.20;90.10
25532;DHT22;13429;48.816;9.118;2023-11-21T09:34:25;9.30;90.30
25532;DHT22;13429;48.816;9.118;2023-11-21T09:36:51;9.20;90.30
25532;DHT22;13429;48.816;9.118;2023-11-21T09:39:17;9.20;89.90
25532;DHT22;13429;48.816;9.118;2023-11-21T09:41:50;9.10;90.20
25532;DHT22;13429;48.816;9.118;2023-11-21T09:44:26;9.20;90.30
25532;DHT22;13429;48.816;9.118;2023-11-21T09:46:59;9.20;90.40
25532;DHT22;13429;48.816;9.118;2023-11-21T09:49:26;9.20;90.40
25532;DHT22;13429;48.816;9.118;2023-11-21T09:51:55;9.20;90.30
25532;DHT22;13429;48.816;9.118;2023-11-21T09:54:22;9.20;90.40
25532;DHT22;13429;48.816;9.118;2023-11-21T09:56:49;9.20;90.40
25532;DHT22;13429;48.816;9.118;2023-11-21T09:59:16;9.10;90.70
25532;DHT22;13429;48.816;9.118;2023-11-21T10:01:42;9.10;90.70
25532;DHT22;13429;48.816;9.118;2023-11-21T10:04:10;9.10;90.60
25532;DHT22;13429;48.816;9.118;2023-11-21T10:06:39;9.00;90.60
25532;DHT22;13429;48.816;9.118;2023-11-21T10:09:09;9.00;90.50
25532;DHT22;13429;48.816;9.118;2023-11-21T10:11:43;8.90;90.40
25532;DHT22;13429;48.816;9.118;2023-11-21T10:14:12;8.90;90.50
25532;DHT22;13429;48.816;9.118;2023-11-21T10:16:40;8.90;90.60
25532;DHT22;13429;48.816;9.118;2023-11-21T10:19:10;8.80;90.60
25532;DHT22;13429;48.816;9.118;2023-11-21T10:21:37;8.80;90.80
25532;DHT22;13429;48.816;9.118;2023-11-21T10:24:03;8.80;90.90
25532;DHT22;13429;48.816;9.118;2023-11-21T10:26:29;8.80;91.00
25532;DHT22;13429;48.816;9.118;2023-11-21T10:31:23;9.00;90.90
25532;DHT22;13429;48.816;9.118;2023-11-21T10:33:52;9.10;90.60
25532;DHT22;13429;48.816;9.118;2023-11-21T10:36:27;9.10;90.60
25532;DHT22;13429;48.816;9.118;2023-11-21T10:38:54;9.30;90.60
25532;DHT22;13429;48.816;9.118;2023-11-21T10:41:20;9.40;90.40
25532;DHT22;13429;48.816;9.118;2023-11-21T10:43:46;9.40;90.10
25532;DHT22;13429;48.816;9.118;2023-11-21T10:46:14;9.50;90.50
25532;DHT22;13429;48.816;9.118;2023-11-21T10:48:41;9.60;89.50
25532;DHT22;13429;48.816;9.118;2023-11-21T10:51:08;9.80;89.90
25532;DHT22;13429;48.816;9.118;2023-11-21T10:53:38;9.80;90.00
25532;DHT22;13429;48.816;9.118;2023-11-21T10:56:08;9.60;89.00
25532;DHT22;13429;48.816;9.118;2023-11-21T10:58:43;9.60;89.60
25532;DHT22;13429;48.816;9.118;2023-11-21T11:01:09;9.70;89.90
25532;DHT22;13429;48.816;9.118;2023-11-21T11:03:37;9.80;89.80
25532;DHT22;13429;48.816;9.118;2023-11-21T11:06:07;9.70;89.30
25532;DHT22;13429;48.816;9.118;2023-11-21T11:08:40;9.50;89.40
25532;DHT22;13429;48.816;9.118;2023-11-21T11:11:06;9.50;89.70
25532;DHT22;13429;48.816;9.118;2023-11-21T11:13:32;9.50;89.70
25532;DHT22;13429;48.816;9.118;2023-11-21T11:15:59;9.50;89.30
25532;DHT22;13429;48.816;9.118;2023-11-21T11:18:26;9.60;89.30
25532;DHT22;13429;48.816;9.118;2023-11-21T11:20:52;9.70;89.10
25532;DHT22;13429;48.816;9.118;2023-11-21T11:23:47;10.10;88.90
25532;DHT22;13429;48.816;9.118;2023-11-21T11:34:58;10.60;87.60
25532;DHT22;13429;48.816;9.118;2023-11-21T11:37:25;10.70;87.40
25532;DHT22;13429;48.816;9.118;2023-11-21T11:39:52;10.70;86.80
25532;DHT22;13429;48.816;9.118;2023-11-21T11:42:21;10.70;86.70
25532;DHT22;13429;48.816;9.118;2023-11-21T11:44:49;10.60;86.40
25532;DHT22;13429;48.816;9.118;2023-11-21T11:47:34;10.60;87.10
25532;DHT22;13429;48.816;9.118;2023-11-21T11:50:09;10.60;86.90
25532;DHT22;13429;48.816;9.118;2023-11-21T11:52:55;10.40;87.20
25532;DHT22;13429;48.816;9.118;2023-11-21T11:55:24;10.40;86.30
25532;DHT22;13429;48.816;9.118;2023-11-21T11:57:53;10.40;86.70
25532;DHT22;13429;48.816;9.118;2023-11-21T12:00:28;10.40;86.70
25532;DHT22;13429;48.816;9.118;2023-11-21T12:03:01;10.50;86.70
25532;DHT22;13429;48.816;9.118;2023-11-21T12:05:29;10.40;86.60
25532;DHT22;13429;48.816;9.118;2023-11-21T12:07:59;10.40;86.90
25532;DHT22;13429;48.816;9.118;2023-11-21T12:10:34;10.30;87.10
25532;DHT22;13429;48.816;9.118;2023-11-21T12:13:08;10.00;87.40
25532;DHT22;13429;48.816;9.118;2023-11-21T12:15:35;9.90;87.90
25532;DHT22;13429;48.816;9.118;2023-11-21T12:18:02;9.80;88.60
25532;DHT22;13429;48.816;9.118;2023-11-21T12:20:28;9.80;88.80
25532;DHT22;13429;48.816;9.118;2023-11-21T12:22:56;9.80;88.60
25532;DHT22;13429;48.816;9.118;2023-11-21T12:25:29;9.80;88.80
25532;DHT22;13429;48.816;9.118;2023-11-21T12:27:57;9.70;88.90
25532;DHT22;13429;48.816;9.118;2023-11-21T12:30:24;9.80;89.00
25532;DHT22;13429;48.816;9.118;2023-11-21T12:32:55;9.80;89.00
25532;DHT22;13429;48.816;9.118;2023-11-21T12:35:41;9.80;89.20
25532;DHT22;13429;48.816;9.118;2023-11-21T12:38:09;9.70;89.50
25532;DHT22;13429;48.816;9.118;2023-11-21T12:40:35;9.70;89.30
25532;DHT22;13429;48.816;9.118;2023-11-21T12:43:01;9.80;89.30
25532;DHT22;13429;48.816;9.118;2023-11-21T12:45:29;9.80;88.90
25532;DHT22;13429;48.816;9.118;2023-11-21T12:48:05;9.90;89.30
25532;DHT22;13429;48.816;9.118;2023-11-21T12:50:34;10.10;88.30
25532;DHT22;13429;48.816;9.118;2023-11-21T12:53:02;10.30;88.50
25532;DHT22;13429;48.816;9.118;2023-11-21T12:55:31;10.50;88.50
25532;DHT22;13429;48.816;9.118;2023-11-21T12:57:57;10.80;88.00
25532;DHT22;13429;48.816;9.118;2023-11-21T13:00:42;11.00;87.10
25532;DHT22;13429;48.816;9.118;2023-11-21T13:03:09;10.90;87.50
25532;DHT22;13429;48.816;9.118;2023-11-21T13:05:38;10.60;86.40
25532;DHT22;13429;48.816;9.118;2023-11-21T13:08:06;10.20;85.80
25532;DHT22;13429;48.816;9.118;2023-11-21T13:10:40;10.00;85.00
25532;DHT22;13429;48.816;9.118;2023-11-21T13:13:09;9.70;86.00
25532;DHT22;13429;48.816;9.118;2023-11-21T13:15:39;9.60;87.20
25532;DHT22;13429;48.816;9.118;2023-11-21T13:18:06;9.50;87.70
25532;DHT22;13429;48.816;9.118;2023-11-21T13:20:32;9.40;88.30
25532;DHT22;13429;48.816;9.118;2023-11-21T13:22:58;9.30;88.60
25532;DHT22;13429;48.816;9.118;2023-11-21T13:25:25;9.20;89.20
25532;DHT22;13429;48.816;9.118;2023-11-21T13:28:00;9.20;89.30
25532;DHT22;13429;48.816;9.118;2023-11-21T13:30:29;9.10;89.70
25532;DHT22;13429;48.816;9.118;2023-11-21T13:33:05;9.10;90.10
25532;DHT22;13429;48.816;9.118;2023-11-21T13:35:34;9.20;90.20
25532;DHT22;13429;48.816;9.118;2023-11-21T13:38:14;9.20;90.20
25532;DHT22;13429;48.816;9.118;2023-11-21T13:40:48;9.20;90.60
25532;DHT22;13429;48.816;9.118;2023-11-21T13:43:18;9.20;90.40
25532;DHT22;13429;48.816;9.118;2023-11-21T13:45:46;9.20;90.50
25532;DHT22;13429;48.816;9.118;2023-11-21T13:48:13;9.20;90.70
25532;DHT22;13429;48.816;9.118;2023-11-21T13:50:46;9.20;90.60
25532;DHT22;13429;48.816;9.118;2023-11-21T13:53:21;9.20;90.60
25532;DHT22;13429;48.816;9.118;2023-11-21T13:55:51;9.20;90.60
25532;DHT22;13429;48.816;9.118;2023-11-21T13:58:22;9.30;90.70
25532;DHT22;13429;48.816;9.118;2023-11-21T14:00:51;9.30;90.90
25532;DHT22;13429;48.816;9.118;2023-11-21T14:03:23;9.30;90.70
25532;DHT22;13429;48.816;9.118;2023-11-21T14:05:58;9.30;90.70
25532;DHT22;13429;48.816;9.118;2023-11-21T14:08:26;9.20;91.00
25532;DHT22;13429;48.816;9.118;2023-11-21T14:10:57;9.20;91.10
25532;DHT22;13429;48.816;9.118;2023-11-21T14:13:25;9.20;91.20
25532;DHT22;13429;48.816;9.118;2023-11-21T14:15:51;9.20;91.00
25532;DHT22;13429;48.816;9.118;2023-11-21T14:18:24;9.20;91.00
25532;DHT22;13429;48.816;9.118;2023-11-21T14:20:57;9.20;91.10
25532;DHT22;13429;48.816;9.118;2023-11-21T14:23:22;9.20;91.00
25532;DHT22;13429;48.816;9.118;2023-11-21T14:25:49;9.20;90.80
25532;DHT22;13429;48.816;9.118;2023-11-21T14:28:16;9.10;90.70
25532;DHT22;13429;48.816;9.118;2023-11-21T14:30:42;9.10;90.90
25532;DHT22;13429;48.816;9.118;2023-11-21T14:33:08;9.10;90.80
25532;DHT22;13429;48.816;9.118;2023-11-21T14:35:35;9.10;90.80
25532;DHT22;13429;48.816;9.118;2023-11-21T14:38:01;8.90;90.80
25532;DHT22;13429;48.816;9.118;2023-11-21T14:40:32;8.90;91.10
25532;DHT22;13429;48.816;9.118;2023-11-21T14:43:03;8.90;91.10
25532;DHT22;13429;48.816;9.118;2023-11-21T14:45:32;8.90;90.90
25532;DHT22;13429;48.816;9.118;2023-11-21T14:47:58;8.90;91.10
25532;DHT22;13429;48.816;9.118;2023-11-21T14:50:42;8.80;91.00
25532;DHT22;13429;48.816;9.118;2023-11-21T14:53:11;8.90;91.10
25532;DHT22;13429;48.816;9.118;2023-11-21T14:55:39;8.80;91.20
25532;DHT22;13429;48.816;9.118;2023-11-21T14:58:17;8.80;90.90
25532;DHT22;13429;48.816;9.118;2023-11-21T15:00:54;8.80;91.00
25532;DHT22;13429;48.816;9.118;2023-11-21T15:03:27;8.70;91.10
25532;DHT22;13429;48.816;9.118;2023-11-21T15:06:03;8.70;91.10
25532;DHT22;13429;48.816;9.118;2023-11-21T15:08:51;8.70;91.50
25532;DHT22;13429;48.816;9.118;2023-11-21T15:11:42;8.70;91.30
25532;DHT22;13429;48.816;9.118;2023-11-21T15:14:08;8.70;91.20
25532;DHT22;13429;48.816;9.118;2023-11-21T15:16:35;8.60;91.50
25532;DHT22;13429;48.816;9.118;2023-11-21T15:19:11;8.60;91.60
25532;DHT22;13429;48.816;9.118;2023-11-21T15:21:43;8.60;91.80
25532;DHT22;13429;48.816;9.118;2023-11-21T15:24:09;8.60;92.00
25532;DHT22;13429;48.816;9.118;2023-11-21T15:26:36;8.60;92.20
25532;DHT22;13429;48.816;9.118;2023-11-21T15:29:01;8.60;92.40
25532;DHT22;13429;48.816;9.118;2023-11-21T15:31:27;8.60;92.40
25532;DHT22;13429;48.816;9.118;2023-11-21T15:33:53;8.60;92.50
25532;DHT22;13429;48.816;9.118;2023-11-21T15:36:19;8.60;92.60
25532;DHT22;13429;48.816;9.118;2023-11-21T15:38:46;8.60;92.70
25532;DHT22;13429;48.816;9.118;2023-11-21T15:41:11;8.50;92.80
25532;DHT22;13429;48.816;9.118;2023-11-21T15:43:37;8.50;92.90
25532;DHT22;13429;48.816;9.118;2023-11-21T15:46:03;8.40;92.80
25532;DHT22;13429;48.816;9.118;2023-11-21T15:48:34;8.40;92.80
25532;DHT22;13429;48.816;9.118;2023-11-21T15:51:01;8.40;92.90
25532;DHT22;13429;48.816;9.118;2023-11-21T15:53:28;8.40;92.90
25532;DHT22;13429;48.816;9.118;2023-11-21T15:55:54;8.40;93.00
25532;DHT22;13429;48.816;9.118;2023-11-21T15:58:19;8.30;93.10